createdAt,value
2022-12-09T00:02:25.768Z,77.54
2022-12-09T00:05:31.900Z,77.72
2022-12-09T00:08:38.493Z,77.73
2022-12-09T00:11:44.717Z,77.71
2022-12-09T00:14:50.387Z,77.65
2022-12-09T00:17:56.196Z,77.67
2022-12-09T00:21:11.608Z,77.75
2022-12-09T00:24:17.667Z,77.85
2022-12-09T00:27:23.627Z,77.91
2022-12-09T00:30:29.550Z,78.00
2022-12-09T00:33:36.616Z,77.90
2022-12-09T00:36:42.797Z,77.80
2022-12-09T00:39:48.853Z,77.81
2022-12-09T00:42:54.648Z,77.98
2022-12-09T00:46:00.649Z,77.93
2022-12-09T00:49:07.593Z,77.84
2022-12-09T00:52:13.264Z,78.03
2022-12-09T00:55:19.474Z,77.97
2022-12-09T00:58:23.628Z,77.99
2022-12-09T01:01:30.364Z,78.13
2022-12-09T01:04:36.491Z,78.08
2022-12-09T01:07:42.305Z,78.15
2022-12-09T01:10:49.085Z,78.13
2022-12-09T01:13:57.930Z,78.13
2022-12-09T01:17:03.851Z,78.14
2022-12-09T01:20:12.649Z,78.24
2022-12-09T01:23:19.029Z,78.21
2022-12-09T01:26:23.394Z,78.29
2022-12-09T01:29:29.375Z,78.28
2022-12-09T01:32:35.152Z,78.29
2022-12-09T01:35:44.044Z,78.30
2022-12-09T01:38:50.232Z,78.16
2022-12-09T01:41:56.095Z,78.36
2022-12-09T01:45:44.253Z,78.37
2022-12-09T01:48:50.095Z,78.41
2022-12-09T01:52:03.924Z,78.44
2022-12-09T01:55:11.149Z,78.42
2022-12-09T01:58:17.908Z,78.60
2022-12-09T02:01:24.471Z,78.54
2022-12-09T02:04:33.666Z,78.61
2022-12-09T02:07:39.656Z,78.76
2022-12-09T02:11:07.831Z,78.71
2022-12-09T02:14:19.621Z,78.72
2022-12-09T02:17:38.523Z,78.64
2022-12-09T02:20:49.869Z,78.61
2022-12-09T02:24:01.798Z,78.73
2022-12-09T02:27:16.567Z,78.62
2022-12-09T02:30:25.777Z,78.74
2022-12-09T02:33:54.344Z,78.77
2022-12-09T02:37:17.620Z,78.77
2022-12-09T02:40:28.160Z,78.83
2022-12-09T02:43:38.568Z,78.78
2022-12-09T02:46:45.946Z,78.83
2022-12-09T02:49:56.782Z,78.66
2022-12-09T02:53:07.731Z,78.92
2022-12-09T02:56:15.869Z,78.73
2022-12-09T02:59:22.186Z,78.96
2022-12-09T03:02:33.371Z,78.91
2022-12-09T03:05:47.970Z,78.96
2022-12-09T03:08:58.896Z,79.02
2022-12-09T03:12:10.348Z,78.93
2022-12-09T03:15:20.525Z,78.92
2022-12-09T03:18:30.705Z,79.06
2022-12-09T03:21:42.223Z,79.04
2022-12-09T03:24:53.040Z,79.09
2022-12-09T03:28:01.982Z,79.08
2022-12-09T03:31:13.884Z,79.04
2022-12-09T03:34:24.140Z,79.05
2022-12-09T03:37:31.576Z,79.09
2022-12-09T03:40:40.149Z,79.04
2022-12-09T03:43:52.461Z,78.99
2022-12-09T03:46:58.887Z,78.87
2022-12-09T03:50:03.218Z,79.07
2022-12-09T03:53:14.331Z,79.05
2022-12-09T03:56:23.171Z,79.01
2022-12-09T03:59:34.749Z,79.08
2022-12-09T04:02:40.957Z,78.89
2022-12-09T04:05:47.812Z,78.92
2022-12-09T04:08:59.331Z,79.13
2022-12-09T04:12:08.921Z,78.99
2022-12-09T04:15:15.166Z,79.12
2022-12-09T04:18:21.589Z,79.02
2022-12-09T04:21:27.433Z,79.08
2022-12-09T04:24:33.715Z,79.28
2022-12-09T04:27:39.522Z,79.30
2022-12-09T04:30:48.480Z,79.18
2022-12-09T04:33:54.995Z,79.16
2022-12-09T04:37:01.010Z,79.16
2022-12-09T04:40:08.547Z,79.23
2022-12-09T04:43:14.740Z,79.18
2022-12-09T04:46:21.075Z,79.12
2022-12-09T04:49:26.905Z,79.17
2022-12-09T04:52:32.598Z,79.06
2022-12-09T04:55:38.388Z,79.05
2022-12-09T04:58:45.173Z,79.16
2022-12-09T05:01:50.942Z,79.03
2022-12-09T05:04:56.835Z,79.13
2022-12-09T05:08:03.136Z,79.34
2022-12-09T05:11:10.172Z,79.21
2022-12-09T05:14:16.473Z,79.16
2022-12-09T05:17:22.673Z,79.12
2022-12-09T05:20:29.858Z,79.01
2022-12-09T05:23:36.916Z,78.91
2022-12-09T05:26:42.933Z,79.24
2022-12-09T05:29:48.825Z,79.21
2022-12-09T05:32:54.734Z,79.12
2022-12-09T05:36:00.776Z,79.17
2022-12-09T05:39:06.828Z,79.14
2022-12-09T05:42:12.732Z,79.10
2022-12-09T05:45:19.110Z,79.10
2022-12-09T05:48:23.581Z,78.96
2022-12-09T05:51:31.258Z,79.08
2022-12-09T05:54:37.026Z,79.34
2022-12-09T05:57:43.331Z,79.29
2022-12-09T06:00:49.206Z,79.40
2022-12-09T06:03:56.638Z,79.22
2022-12-09T06:07:02.841Z,79.26
2022-12-09T06:10:11.059Z,79.31
2022-12-09T06:13:17.680Z,79.13
2022-12-09T06:16:25.029Z,79.25
2022-12-09T06:19:31.257Z,79.25
2022-12-09T06:22:38.575Z,79.15
2022-12-09T06:25:47.276Z,79.21
2022-12-09T06:28:53.538Z,79.41
2022-12-09T06:31:59.547Z,79.52
2022-12-09T06:35:08.042Z,79.16
2022-12-09T06:38:14.180Z,79.16
2022-12-09T06:41:20.013Z,79.20
2022-12-09T06:44:26.314Z,79.33
2022-12-09T06:47:30.595Z,79.21
2022-12-09T06:50:37.923Z,79.40
2022-12-09T06:53:44.924Z,79.39
2022-12-09T06:56:50.822Z,79.40
2022-12-09T06:59:56.839Z,79.41
2022-12-09T07:03:02.796Z,79.38
2022-12-09T07:06:18.029Z,79.49
2022-12-09T07:09:24.616Z,79.53
2022-12-09T07:12:30.407Z,79.49
2022-12-09T07:15:36.404Z,79.47
2022-12-09T07:18:42.446Z,79.46
2022-12-09T07:21:47.859Z,79.48
2022-12-09T07:24:54.125Z,79.62
2022-12-09T07:28:00.253Z,79.72
2022-12-09T07:31:07.767Z,79.80
2022-12-09T07:34:14.447Z,79.66
2022-12-09T07:37:21.319Z,79.70
2022-12-09T07:40:27.223Z,79.72
2022-12-09T07:43:36.092Z,79.76
2022-12-09T07:46:42.000Z,79.84
2022-12-09T07:49:47.886Z,79.87
2022-12-09T07:52:54.301Z,79.89
2022-12-09T07:56:05.276Z,79.80
2022-12-09T07:59:12.233Z,79.85
2022-12-09T08:02:18.332Z,79.91
2022-12-09T08:05:24.530Z,79.95
2022-12-09T08:08:30.981Z,80.13
2022-12-09T08:11:38.018Z,80.26
2022-12-09T08:14:44.526Z,80.25
2022-12-09T08:17:50.881Z,80.31
2022-12-09T08:20:55.394Z,80.27
2022-12-09T08:24:03.253Z,80.40
2022-12-09T08:27:09.208Z,80.45
2022-12-09T08:30:16.866Z,80.49
2022-12-09T08:33:23.674Z,80.49
2022-12-09T08:36:31.182Z,80.67
2022-12-09T08:39:37.483Z,80.66
2022-12-09T08:42:41.933Z,80.76
2022-12-09T08:45:47.903Z,80.77
2022-12-09T08:48:53.954Z,80.57
2022-12-09T08:52:00.430Z,80.69
2022-12-09T08:55:07.800Z,80.65
2022-12-09T08:58:13.510Z,80.53
2022-12-09T09:01:21.215Z,80.67
2022-12-09T09:04:27.143Z,80.84
2022-12-09T09:07:34.734Z,80.99
2022-12-09T09:10:40.761Z,81.08
2022-12-09T09:13:48.827Z,80.97
2022-12-09T09:16:55.309Z,80.89
2022-12-09T09:19:59.556Z,81.02
2022-12-09T09:23:05.984Z,81.11
2022-12-09T09:26:15.240Z,81.06
2022-12-09T09:29:23.800Z,81.12
2022-12-09T09:32:29.788Z,81.19
2022-12-09T09:35:34.796Z,81.14
2022-12-09T09:38:41.032Z,81.24
2022-12-09T09:41:52.546Z,81.33
2022-12-09T09:44:58.957Z,81.24
2022-12-09T09:48:04.752Z,81.20
2022-12-09T09:51:13.092Z,81.14
2022-12-09T09:54:19.431Z,81.28
2022-12-09T09:57:27.037Z,81.18
2022-12-09T10:00:37.215Z,81.12
2022-12-09T10:03:52.688Z,81.25
2022-12-09T10:07:06.928Z,81.15
2022-12-09T10:10:27.312Z,81.17
2022-12-09T10:13:48.417Z,81.05
2022-12-09T10:17:05.903Z,81.23
2022-12-09T10:20:17.426Z,81.21
2022-12-09T10:23:24.535Z,81.24
2022-12-09T10:26:32.832Z,81.17
2022-12-09T10:29:51.470Z,81.16
2022-12-09T10:32:57.320Z,81.17
2022-12-09T10:36:04.244Z,81.23
2022-12-09T10:39:20.324Z,81.19
2022-12-09T10:42:44.817Z,81.01
2022-12-09T10:46:22.404Z,80.99
2022-12-09T10:49:23.863Z,81.09
2022-12-09T10:52:33.651Z,81.16
2022-12-09T10:55:42.696Z,81.22
2022-12-09T10:58:48.716Z,81.08
2022-12-09T11:01:57.574Z,81.08
2022-12-09T11:05:24.378Z,81.04
2022-12-09T11:08:31.456Z,81.09
2022-12-09T11:11:47.203Z,80.98
2022-12-09T11:14:55.633Z,81.02
2022-12-09T11:18:04.543Z,81.03
2022-12-09T11:21:32.575Z,81.14
2022-12-09T11:24:38.776Z,81.12
2022-12-09T11:27:50.796Z,81.19
2022-12-09T11:34:28.137Z,81.07
2022-12-09T11:37:35.323Z,81.11
2022-12-09T11:40:41.056Z,81.19
2022-12-09T11:43:51.704Z,81.11
2022-12-09T11:47:03.695Z,81.10
2022-12-09T11:50:20.415Z,81.20
2022-12-09T11:53:34.076Z,81.12
2022-12-09T11:56:51.096Z,81.08
2022-12-09T12:00:01.401Z,80.96
2022-12-09T12:03:14.668Z,80.94
2022-12-09T12:06:24.538Z,80.99
2022-12-09T12:09:36.853Z,80.97
2022-12-09T12:12:52.120Z,80.95
2022-12-09T12:16:05.870Z,80.90
2022-12-09T12:19:21.113Z,80.80
2022-12-09T12:22:54.282Z,80.76
2022-12-09T12:26:07.565Z,80.69
2022-12-09T12:29:27.087Z,80.65
2022-12-09T12:32:52.289Z,80.76
2022-12-09T12:36:19.472Z,80.67
2022-12-09T12:39:41.646Z,80.79
2022-12-09T12:43:30.506Z,80.77
2022-12-09T12:46:48.662Z,80.70
2022-12-09T12:50:14.221Z,80.46
2022-12-09T12:53:33.029Z,80.65
2022-12-09T12:56:43.768Z,80.74
2022-12-09T12:59:58.879Z,80.69
2022-12-09T13:03:18.767Z,80.72
2022-12-09T13:06:32.305Z,80.71
2022-12-09T13:09:43.776Z,80.69
2022-12-09T13:12:56.718Z,80.72
2022-12-09T13:16:07.689Z,80.45
2022-12-09T13:19:18.564Z,80.51
2022-12-09T13:22:28.175Z,80.17
2022-12-09T13:25:42.031Z,80.15
2022-12-09T13:28:54.932Z,80.23
2022-12-09T13:32:11.781Z,80.22
2022-12-09T13:35:25.421Z,80.11
2022-12-09T13:38:39.902Z,80.04
2022-12-09T13:42:06.777Z,80.11
2022-12-09T13:45:18.454Z,80.03
2022-12-09T13:48:54.900Z,80.11
2022-12-09T13:52:00.859Z,79.98
2022-12-09T13:55:18.595Z,79.93
2022-12-09T13:58:49.111Z,79.81
2022-12-09T14:01:57.014Z,79.84
2022-12-09T14:05:12.486Z,79.90
2022-12-09T14:08:24.166Z,79.89
2022-12-09T14:11:49.285Z,79.88
2022-12-09T14:14:56.211Z,79.93
2022-12-09T14:18:07.160Z,79.79
2022-12-09T14:21:31.136Z,79.76
2022-12-09T14:24:37.142Z,79.74
2022-12-09T14:28:19.348Z,79.94
2022-12-09T14:31:59.689Z,80.09
2022-12-09T14:35:21.219Z,79.85
2022-12-09T14:38:32.889Z,79.71
2022-12-09T14:41:47.467Z,79.56
2022-12-09T14:45:03.463Z,79.46
2022-12-09T14:48:17.606Z,79.59
2022-12-09T14:51:27.461Z,79.55
2022-12-09T14:54:36.141Z,79.45
2022-12-09T14:57:45.984Z,79.52
2022-12-09T15:01:02.208Z,79.43
2022-12-09T15:04:08.120Z,79.43
2022-12-09T15:07:17.034Z,79.42
2022-12-09T15:10:29.456Z,79.33
2022-12-09T15:13:38.793Z,79.39
2022-12-09T15:16:49.113Z,79.26
2022-12-09T15:20:12.346Z,79.47
2022-12-09T15:23:21.256Z,79.41
2022-12-09T15:26:29.495Z,79.58
2022-12-09T15:29:35.940Z,79.55
2022-12-09T15:32:41.962Z,79.45
2022-12-09T15:35:53.756Z,79.51
2022-12-09T15:39:02.889Z,79.35
2022-12-09T15:42:11.870Z,79.55
2022-12-09T15:45:20.958Z,79.43
2022-12-09T15:48:33.471Z,79.39
2022-12-09T15:51:42.496Z,79.48
2022-12-09T15:54:49.068Z,79.78
2022-12-09T15:57:57.702Z,79.93
2022-12-09T16:01:03.821Z,79.85
2022-12-09T16:04:11.722Z,79.79
2022-12-09T16:07:20.856Z,79.76
2022-12-09T16:10:27.881Z,80.03
2022-12-09T16:13:33.837Z,80.11
2022-12-09T16:16:44.356Z,80.02
2022-12-09T16:19:50.055Z,79.93
2022-12-09T16:22:57.047Z,80.23
2022-12-09T16:26:07.377Z,80.12
2022-12-09T16:29:23.089Z,79.98
2022-12-09T16:32:31.648Z,80.20
2022-12-09T16:35:41.027Z,80.21
2022-12-09T16:39:20.491Z,80.30
2022-12-09T16:42:30.487Z,80.17
2022-12-09T16:45:38.719Z,80.26
2022-12-09T16:48:44.413Z,80.31
2022-12-09T16:51:50.166Z,80.19
2022-12-09T16:54:55.815Z,80.28
2022-12-09T16:58:02.502Z,80.41
2022-12-09T17:01:13.747Z,80.52
2022-12-09T17:04:23.107Z,80.48
2022-12-09T17:07:28.728Z,80.61
2022-12-09T17:10:34.315Z,80.72
2022-12-09T17:13:40.474Z,80.82
2022-12-09T17:16:46.282Z,80.81
2022-12-09T17:19:52.294Z,80.93
2022-12-09T17:22:57.940Z,80.79
2022-12-09T17:26:05.560Z,80.92
2022-12-09T17:29:11.195Z,80.91
2022-12-09T17:32:17.059Z,81.13
2022-12-09T17:35:22.703Z,81.16
2022-12-09T17:38:30.608Z,81.18
2022-12-09T17:41:36.258Z,81.27
2022-12-09T17:44:41.912Z,81.29
2022-12-09T17:47:49.959Z,81.34
2022-12-09T17:50:56.589Z,81.34
2022-12-09T17:54:02.246Z,81.51
2022-12-09T17:57:08.002Z,81.50
2022-12-09T18:00:16.774Z,81.49
2022-12-09T18:03:39.400Z,81.66
2022-12-09T18:06:48.634Z,81.51
2022-12-09T18:09:54.758Z,81.62
2022-12-09T18:12:58.989Z,81.71
2022-12-09T18:16:08.373Z,81.67
2022-12-09T18:19:17.523Z,81.75
2022-12-09T18:22:23.076Z,81.93
2022-12-09T18:25:28.765Z,81.91
2022-12-09T18:28:34.415Z,81.74
2022-12-09T18:31:40.196Z,81.79
2022-12-09T18:34:46.548Z,81.95
2022-12-09T18:37:50.803Z,82.09
2022-12-09T18:41:02.347Z,82.19
2022-12-09T18:44:09.393Z,82.29
2022-12-09T18:47:15.085Z,82.25
2022-12-09T18:50:20.737Z,82.24
2022-12-09T18:53:27.106Z,82.17
2022-12-09T18:56:32.187Z,82.27
2022-12-09T18:59:37.732Z,82.28
2022-12-09T19:02:43.432Z,82.38
2022-12-09T19:05:49.040Z,82.42
2022-12-09T19:08:57.060Z,82.43
2022-12-09T19:12:37.807Z,82.58
2022-12-09T19:15:30.091Z,82.59
2022-12-09T19:18:36.961Z,82.52
2022-12-09T19:21:42.750Z,82.68
2022-12-09T19:24:48.404Z,82.76
2022-12-09T19:27:55.574Z,82.83
2022-12-09T19:31:01.272Z,82.70
2022-12-09T19:34:09.555Z,82.76
2022-12-09T19:37:15.208Z,82.82
2022-12-09T19:40:21.095Z,82.66
2022-12-09T19:43:28.246Z,82.79
2022-12-09T19:46:35.371Z,82.90
2022-12-09T19:49:43.549Z,82.73
2022-12-09T19:52:49.711Z,83.03
2022-12-09T19:55:56.082Z,82.99
2022-12-09T19:59:02.755Z,82.90
2022-12-09T20:02:12.159Z,82.85
2022-12-09T20:05:18.595Z,82.95
2022-12-09T20:08:25.296Z,83.03
2022-12-09T20:11:34.107Z,83.09
2022-12-09T20:14:41.364Z,82.84
2022-12-09T20:17:47.009Z,83.01
2022-12-09T20:20:52.840Z,83.13
2022-12-09T20:24:02.197Z,83.18
2022-12-09T20:27:08.266Z,83.17
2022-12-09T20:30:15.180Z,83.32
2022-12-09T20:33:21.417Z,83.28
2022-12-09T20:36:29.317Z,83.22
2022-12-09T20:39:36.220Z,83.36
2022-12-09T20:42:41.953Z,83.42
2022-12-09T20:45:47.626Z,83.34
2022-12-09T20:48:53.664Z,83.42
2022-12-09T20:51:59.826Z,83.30
2022-12-09T20:55:06.834Z,83.33
2022-12-09T20:58:12.464Z,83.22
2022-12-09T21:01:21.572Z,83.39
2022-12-09T21:04:27.352Z,83.31
2022-12-09T21:07:33.000Z,83.35
2022-12-09T21:10:38.652Z,83.46
2022-12-09T21:13:47.165Z,83.54
2022-12-09T21:16:53.083Z,83.45
2022-12-09T21:19:58.782Z,83.44
2022-12-09T21:23:32.807Z,83.52
2022-12-09T21:26:31.181Z,83.43
2022-12-09T21:29:37.887Z,83.42
2022-12-09T21:32:43.508Z,83.51
2022-12-09T21:35:49.159Z,83.58
2022-12-09T21:38:55.522Z,83.51
2022-12-09T21:41:59.745Z,83.51
2022-12-09T21:45:06.559Z,83.53
2022-12-09T21:48:12.687Z,83.64
2022-12-09T21:51:18.742Z,83.73
2022-12-09T21:54:24.448Z,83.72
2022-12-09T21:57:30.359Z,83.78
2022-12-09T22:00:36.011Z,83.74
2022-12-09T22:03:41.691Z,83.65
2022-12-09T22:06:50.284Z,83.81
2022-12-09T22:09:55.940Z,83.69
2022-12-09T22:13:01.655Z,83.75
2022-12-09T22:16:10.601Z,83.73
2022-12-09T22:19:19.751Z,83.94
2022-12-09T22:22:26.017Z,83.72
2022-12-09T22:25:31.805Z,83.70
2022-12-09T22:28:38.546Z,83.89
2022-12-09T22:31:44.918Z,83.70
2022-12-09T22:34:48.974Z,83.81
2022-12-09T22:37:54.515Z,83.77
2022-12-09T22:41:03.197Z,83.68
2022-12-09T22:44:08.855Z,83.84
2022-12-09T22:47:14.507Z,83.84
2022-12-09T22:50:20.160Z,83.93
2022-12-09T22:53:25.749Z,83.92
2022-12-09T22:56:31.771Z,84.01
2022-12-09T22:59:42.811Z,83.81
2022-12-09T23:02:48.870Z,83.82
2022-12-09T23:05:55.280Z,83.98
2022-12-09T23:09:00.937Z,83.85
2022-12-09T23:12:07.340Z,83.81
2022-12-09T23:15:13.957Z,83.91
2022-12-09T23:18:19.626Z,83.92
2022-12-09T23:21:27.015Z,84.09
2022-12-09T23:24:32.671Z,83.95
2022-12-09T23:27:38.291Z,83.92
2022-12-09T23:30:44.016Z,83.79
2022-12-09T23:33:51.334Z,83.83
2022-12-09T23:36:57.121Z,83.98
2022-12-09T23:40:02.774Z,83.97
2022-12-09T23:43:08.424Z,83.89
2022-12-09T23:46:16.343Z,84.08
2022-12-09T23:49:22.198Z,84.03
2022-12-09T23:52:27.837Z,83.99
2022-12-09T23:55:33.456Z,84.09
2022-12-09T23:58:39.140Z,84.10
